Hialeah, Florida
Current Conditions -  °F | °C
As of 1:53 PM on Thursday 23 Oct 2014 (Local Time) from KMIA Reporting Station
Light Rain Light Rain  
Wind Chill: 79°   Ceiling: 2000
Heat Index: 82°   Visibility: 10mi
Dew Point: 72°   Wind: 15mph
Humidity: 79%   Direction: 20°NNE
Pressure: 29.9"   Gusts: NA
Location:  25.86°N, 80.29°W
Report Text: KMIA 231753Z 02013KT 10SM -RA FEW013 BKN020CB BKN065 OVC140 26/22 A2990 RMK AO2 RAB42 SLP123 CB N-NE MOV SW TCU SW-W P0000 60002 T02610222 10272 20233 58017
Loading
Personal Weather Stations






























Interactive Weather Map New forecast layout! Learn more

10-Day Weather Forecast

Advertisements
Track Severe Weather on mobile